createdAt,value
2022-08-31T00:00:09.784Z,44.69
2022-08-31T00:02:55.047Z,44.83
2022-08-31T00:05:23.301Z,44.93
2022-08-31T00:07:51.770Z,44.98
2022-08-31T00:10:32.388Z,45.05
2022-08-31T00:13:03.138Z,45.00
2022-08-31T00:15:31.199Z,45.02
2022-08-31T00:17:59.360Z,45.38
2022-08-31T00:20:33.446Z,45.17
2022-08-31T00:23:02.881Z,45.35
2022-08-31T00:25:32.302Z,45.48
2022-08-31T00:28:00.595Z,45.53
2022-08-31T00:30:29.494Z,45.78
2022-08-31T00:32:58.088Z,45.68
2022-08-31T00:35:27.040Z,45.90
2022-08-31T00:37:55.072Z,46.04
2022-08-31T00:40:23.971Z,46.30
2022-08-31T00:42:53.452Z,46.57
2022-08-31T00:45:22.013Z,46.68
2022-08-31T00:47:50.126Z,46.52
2022-08-31T00:50:18.595Z,46.72
2022-08-31T00:52:49.949Z,46.94
2022-08-31T00:55:19.394Z,47.21
2022-08-31T00:57:49.690Z,47.21
2022-08-31T01:00:20.686Z,47.44
2022-08-31T01:02:49.065Z,47.13
2022-08-31T01:05:17.312Z,46.90
2022-08-31T01:07:47.667Z,47.00
2022-08-31T01:10:15.740Z,46.97
2022-08-31T01:12:43.919Z,47.12
2022-08-31T01:15:13.567Z,46.94
2022-08-31T01:17:43.066Z,46.97
2022-08-31T01:20:15.263Z,47.09
2022-08-31T01:22:55.683Z,46.94
2022-08-31T01:25:23.685Z,46.99
2022-08-31T01:28:04.136Z,46.95
2022-08-31T01:30:32.521Z,47.03
2022-08-31T01:33:03.124Z,47.14
2022-08-31T01:35:31.960Z,47.19
2022-08-31T01:38:01.390Z,47.34
2022-08-31T01:40:33.005Z,47.17
2022-08-31T01:43:01.196Z,46.95
2022-08-31T01:45:29.424Z,47.32
2022-08-31T01:47:57.482Z,47.51
2022-08-31T01:50:26.635Z,47.30
2022-08-31T01:52:54.707Z,47.53
2022-08-31T01:55:24.188Z,47.42
2022-08-31T01:57:52.338Z,47.79
2022-08-31T02:00:39.092Z,48.08
2022-08-31T02:03:08.053Z,48.00
2022-08-31T02:05:38.500Z,47.91
2022-08-31T02:08:07.752Z,47.91
2022-08-31T02:10:37.359Z,47.82
2022-08-31T02:13:05.487Z,47.86
2022-08-31T02:15:38.316Z,47.98
2022-08-31T02:18:06.477Z,48.09
2022-08-31T02:20:34.656Z,48.29
2022-08-31T02:23:03.498Z,48.16
2022-08-31T02:25:31.787Z,48.31
2022-08-31T02:28:03.907Z,48.29
2022-08-31T02:30:32.184Z,48.41
2022-08-31T02:33:00.468Z,48.37
2022-08-31T02:35:28.511Z,48.80
2022-08-31T02:37:56.885Z,48.64
2022-08-31T02:40:26.013Z,48.57
2022-08-31T02:42:54.401Z,48.85
2022-08-31T02:45:27.168Z,48.95
2022-08-31T02:48:01.713Z,49.01
2022-08-31T02:50:35.665Z,48.97
2022-08-31T02:53:06.216Z,49.03
2022-08-31T02:55:35.052Z,48.65
2022-08-31T02:58:03.104Z,49.11
2022-08-31T03:00:33.053Z,48.93
2022-08-31T03:03:01.247Z,48.70
2022-08-31T03:05:29.853Z,48.84
2022-08-31T03:07:57.942Z,49.25
2022-08-31T03:10:26.216Z,48.90
2022-08-31T03:12:54.481Z,49.29
2022-08-31T03:15:24.881Z,49.05
2022-08-31T03:17:54.300Z,49.36
2022-08-31T03:20:25.556Z,49.33
2022-08-31T03:22:54.691Z,49.77
2022-08-31T03:25:22.816Z,49.67
2022-08-31T03:27:53.254Z,49.69
2022-08-31T03:30:25.497Z,49.64
2022-08-31T03:33:08.264Z,49.78
2022-08-31T03:35:36.412Z,49.91
2022-08-31T03:38:05.468Z,49.66
2022-08-31T03:40:34.004Z,49.64
2022-08-31T03:43:03.484Z,49.56
2022-08-31T03:45:32.139Z,49.58
2022-08-31T03:48:00.693Z,49.58
2022-08-31T03:50:30.257Z,49.99
2022-08-31T03:53:04.227Z,49.75
2022-08-31T03:55:32.422Z,49.50
2022-08-31T03:58:01.059Z,50.04
2022-08-31T04:00:29.256Z,49.88
2022-08-31T04:03:03.242Z,49.85
2022-08-31T04:05:34.307Z,50.01
2022-08-31T04:08:17.741Z,50.20
2022-08-31T04:10:48.827Z,49.83
2022-08-31T04:13:28.006Z,49.83
2022-08-31T04:16:17.899Z,50.29
2022-08-31T04:18:58.071Z,50.60
2022-08-31T04:21:30.376Z,50.59
2022-08-31T04:23:58.626Z,50.19
2022-08-31T04:26:30.857Z,50.66
2022-08-31T04:29:01.830Z,50.12
2022-08-31T04:31:30.201Z,50.10
2022-08-31T04:34:00.212Z,50.53
2022-08-31T04:36:29.763Z,50.16
2022-08-31T04:38:58.843Z,50.27
2022-08-31T04:41:27.820Z,50.42
2022-08-31T04:43:57.228Z,50.70
2022-08-31T04:46:26.440Z,50.29
2022-08-31T04:48:56.274Z,50.58
2022-08-31T04:51:25.560Z,50.57
2022-08-31T04:53:55.201Z,50.33
2022-08-31T04:56:24.228Z,50.56
2022-08-31T04:58:55.565Z,50.50
2022-08-31T05:01:25.655Z,50.74
2022-08-31T05:04:05.904Z,50.55
2022-08-31T05:09:06.176Z,50.76
2022-08-31T05:11:34.289Z,50.40
2022-08-31T05:14:03.225Z,50.72
2022-08-31T05:16:31.573Z,50.76
2022-08-31T05:18:59.844Z,50.69
2022-08-31T05:21:29.220Z,50.71
2022-08-31T05:23:57.872Z,50.66
2022-08-31T05:26:28.338Z,50.66
2022-08-31T05:28:56.427Z,50.41
2022-08-31T05:31:26.779Z,50.49
2022-08-31T05:33:58.033Z,50.18
2022-08-31T05:36:36.440Z,50.15
2022-08-31T05:39:09.328Z,50.33
2022-08-31T05:41:39.101Z,50.20
2022-08-31T05:44:07.411Z,50.19
2022-08-31T05:46:37.035Z,50.16
2022-08-31T05:49:06.551Z,50.47
2022-08-31T05:54:07.243Z,50.16
2022-08-31T05:56:35.712Z,50.09
2022-08-31T05:59:05.541Z,50.21
2022-08-31T06:01:34.927Z,50.25
2022-08-31T06:04:12.052Z,50.19
2022-08-31T06:06:40.177Z,49.83
2022-08-31T06:09:08.617Z,49.84
2022-08-31T06:11:42.295Z,50.16
2022-08-31T06:14:14.921Z,49.63
2022-08-31T06:16:44.670Z,49.80
2022-08-31T06:19:15.347Z,49.64
2022-08-31T06:21:50.422Z,49.62
2022-08-31T06:24:24.175Z,49.51
2022-08-31T06:26:59.658Z,49.34
2022-08-31T06:29:35.143Z,49.55
2022-08-31T06:32:07.922Z,49.56
2022-08-31T06:34:38.176Z,49.47
2022-08-31T06:37:06.503Z,49.43
2022-08-31T06:39:45.069Z,49.19
2022-08-31T06:42:36.330Z,49.02
2022-08-31T06:45:06.100Z,48.96
2022-08-31T06:47:50.324Z,49.07
2022-08-31T06:50:22.181Z,48.81
2022-08-31T06:52:52.148Z,48.66
2022-08-31T06:55:23.088Z,48.78
2022-08-31T06:58:09.387Z,48.63
2022-08-31T07:00:59.302Z,48.44
2022-08-31T07:03:34.475Z,48.42
2022-08-31T07:06:06.249Z,47.98
2022-08-31T07:08:34.385Z,47.91
2022-08-31T07:11:04.109Z,47.85
2022-08-31T07:13:32.465Z,47.50
2022-08-31T07:16:06.505Z,47.64
2022-08-31T07:18:34.701Z,47.31
2022-08-31T07:21:11.200Z,47.04
2022-08-31T07:23:41.882Z,46.89
2022-08-31T07:26:15.165Z,46.51
2022-08-31T07:28:44.153Z,46.53
2022-08-31T07:31:17.566Z,46.01
2022-08-31T07:33:46.001Z,45.90
2022-08-31T07:36:15.462Z,45.67
2022-08-31T07:39:11.999Z,45.48
2022-08-31T07:42:02.877Z,45.29
2022-08-31T07:44:33.187Z,44.87
2022-08-31T07:47:02.801Z,44.78
2022-08-31T07:49:31.597Z,44.82
2022-08-31T07:52:19.800Z,44.67
2022-08-31T07:55:23.881Z,44.67
2022-08-31T07:58:00.215Z,44.57
2022-08-31T08:00:29.928Z,44.58
2022-08-31T08:03:07.746Z,44.33
2022-08-31T08:05:56.386Z,44.18
2022-08-31T08:08:43.805Z,44.10
2022-08-31T08:11:22.939Z,44.19
2022-08-31T08:14:19.994Z,44.28
2022-08-31T08:17:07.735Z,44.19
2022-08-31T08:19:48.991Z,44.11
2022-08-31T08:22:35.687Z,43.87
2022-08-31T08:25:26.098Z,43.88
2022-08-31T08:28:28.959Z,43.79
2022-08-31T08:31:01.372Z,43.71
2022-08-31T08:33:32.704Z,43.66
2022-08-31T08:36:08.113Z,43.31
2022-08-31T08:38:39.469Z,43.24
2022-08-31T08:41:11.677Z,43.17
2022-08-31T08:43:41.681Z,43.17
2022-08-31T08:46:33.336Z,43.07
2022-08-31T08:49:07.990Z,43.00
2022-08-31T08:51:39.697Z,42.57
2022-08-31T08:54:11.042Z,42.42
2022-08-31T08:56:49.349Z,42.22
2022-08-31T08:59:20.810Z,42.00
2022-08-31T09:01:51.008Z,41.72
2022-08-31T09:04:51.056Z,40.76
2022-08-31T09:07:51.160Z,40.95
2022-08-31T09:10:23.323Z,40.63
2022-08-31T09:12:53.893Z,40.56
2022-08-31T09:16:01.013Z,39.99
2022-08-31T09:18:41.124Z,39.95
2022-08-31T09:21:22.042Z,39.71
2022-08-31T09:24:02.024Z,39.54
2022-08-31T09:26:50.692Z,39.45
2022-08-31T09:29:35.210Z,39.83
2022-08-31T09:32:06.522Z,40.10
2022-08-31T09:34:37.293Z,39.90
2022-08-31T09:37:16.490Z,39.53
2022-08-31T09:39:48.756Z,38.86
2022-08-31T09:42:29.146Z,38.02
2022-08-31T09:44:59.085Z,37.76
2022-08-31T09:47:50.104Z,38.07
2022-08-31T09:50:31.513Z,37.82
2022-08-31T09:53:30.886Z,37.00
2022-08-31T09:56:16.314Z,37.10
2022-08-31T09:58:49.129Z,37.45
2022-08-31T10:01:20.768Z,37.67
2022-08-31T10:03:48.948Z,37.30
2022-08-31T10:06:45.793Z,36.72
2022-08-31T10:09:28.144Z,36.40
2022-08-31T10:11:59.565Z,35.68
2022-08-31T10:14:32.007Z,36.06
2022-08-31T10:17:02.918Z,35.42
2022-08-31T10:19:40.227Z,34.96
2022-08-31T10:22:11.594Z,35.72
2022-08-31T10:24:46.404Z,35.63
2022-08-31T10:27:17.524Z,35.96
2022-08-31T10:29:49.472Z,35.68
2022-08-31T10:32:24.904Z,35.78
2022-08-31T10:35:07.357Z,35.24
2022-08-31T10:37:51.098Z,35.25
2022-08-31T10:40:21.117Z,35.73
2022-08-31T10:42:59.462Z,35.13
2022-08-31T10:45:30.362Z,34.49
2022-08-31T10:47:58.636Z,33.72
2022-08-31T10:50:30.064Z,34.02
2022-08-31T10:53:05.931Z,34.23
2022-08-31T10:55:37.480Z,34.18
2022-08-31T10:58:12.886Z,33.83
2022-08-31T11:00:46.636Z,34.08
2022-08-31T11:03:18.070Z,34.47
2022-08-31T11:05:51.034Z,34.28
2022-08-31T11:08:37.903Z,33.17
2022-08-31T11:11:09.705Z,32.83
2022-08-31T11:14:00.527Z,32.56
2022-08-31T11:16:49.667Z,32.95
2022-08-31T11:19:38.595Z,32.76
2022-08-31T11:22:34.788Z,32.64
2022-08-31T11:25:30.020Z,32.58
2022-08-31T11:28:00.501Z,33.29
2022-08-31T11:30:31.770Z,32.93
2022-08-31T11:33:03.164Z,32.61
2022-08-31T11:35:57.454Z,32.27
2022-08-31T11:38:52.632Z,32.28
2022-08-31T11:41:39.208Z,32.60
2022-08-31T11:44:07.880Z,32.47
2022-08-31T11:47:08.644Z,33.01
2022-08-31T11:49:43.968Z,32.82
2022-08-31T11:52:43.471Z,33.10
2022-08-31T11:55:27.561Z,32.63
2022-08-31T11:58:49.771Z,33.09
2022-08-31T12:01:43.272Z,32.24
2022-08-31T12:04:46.226Z,31.51
2022-08-31T12:07:19.018Z,32.15
2022-08-31T12:10:17.612Z,32.68
2022-08-31T12:13:26.723Z,32.39
2022-08-31T12:16:23.677Z,31.80
2022-08-31T12:19:35.155Z,31.26
2022-08-31T12:22:25.999Z,30.56
2022-08-31T12:24:59.400Z,30.48
2022-08-31T12:27:32.249Z,30.46
2022-08-31T12:30:21.203Z,29.50
2022-08-31T12:32:56.162Z,29.33
2022-08-31T12:35:29.043Z,29.29
2022-08-31T12:38:02.768Z,28.94
2022-08-31T12:40:34.333Z,29.42
2022-08-31T12:43:06.337Z,29.96
2022-08-31T12:46:10.272Z,30.04
2022-08-31T12:48:53.993Z,30.34
2022-08-31T12:51:29.326Z,30.25
2022-08-31T12:54:28.430Z,29.94
2022-08-31T12:56:59.882Z,30.00
2022-08-31T12:59:59.425Z,29.96
2022-08-31T13:02:30.468Z,30.07
2022-08-31T13:04:58.881Z,29.98
2022-08-31T13:07:30.892Z,29.74
2022-08-31T13:10:08.994Z,29.21
2022-08-31T13:12:38.813Z,29.46
2022-08-31T13:15:14.355Z,29.53
2022-08-31T13:17:43.864Z,29.32
2022-08-31T13:20:19.396Z,28.76
2022-08-31T13:22:59.857Z,28.91
2022-08-31T13:25:35.931Z,29.47
2022-08-31T13:28:10.886Z,28.72
2022-08-31T13:30:55.015Z,28.10
2022-08-31T13:33:27.322Z,28.71
2022-08-31T13:36:04.233Z,28.93
2022-08-31T13:38:45.147Z,29.38
2022-08-31T13:41:18.944Z,29.30
2022-08-31T13:43:55.025Z,29.36
2022-08-31T13:46:43.382Z,29.06
2022-08-31T13:49:29.827Z,29.89
2022-08-31T13:52:01.456Z,28.74
2022-08-31T13:54:33.448Z,27.55
2022-08-31T13:57:21.975Z,28.10
2022-08-31T13:59:53.639Z,28.13
2022-08-31T14:02:37.654Z,27.67
2022-08-31T14:05:08.760Z,27.45
2022-08-31T14:07:56.168Z,26.88
2022-08-31T14:10:26.845Z,26.12
2022-08-31T14:12:57.046Z,26.07
2022-08-31T14:15:41.481Z,25.75
2022-08-31T14:18:26.909Z,25.40
2022-08-31T14:21:22.674Z,25.09
2022-08-31T14:23:53.529Z,24.46
2022-08-31T14:26:29.384Z,23.91
2022-08-31T14:29:04.653Z,23.42
2022-08-31T14:31:37.543Z,22.90
2022-08-31T14:34:26.421Z,22.98
2022-08-31T14:37:04.199Z,22.75
2022-08-31T14:39:36.767Z,21.40
2022-08-31T14:42:12.096Z,21.48
2022-08-31T14:44:43.288Z,21.09
2022-08-31T14:47:12.818Z,21.19
2022-08-31T14:49:45.565Z,21.26
2022-08-31T14:52:14.513Z,21.28
2022-08-31T14:54:43.067Z,21.13
2022-08-31T14:57:13.175Z,20.93
2022-08-31T14:59:52.296Z,21.30
2022-08-31T15:02:24.058Z,21.01
2022-08-31T15:04:52.389Z,20.68
2022-08-31T15:07:20.582Z,20.88
2022-08-31T15:09:50.303Z,20.85
2022-08-31T15:12:22.704Z,19.89
2022-08-31T15:18:26.171Z,20.30
2022-08-31T15:21:32.270Z,19.72
2022-08-31T15:24:15.077Z,20.42
2022-08-31T15:26:56.119Z,19.45
2022-08-31T15:30:14.845Z,20.06
2022-08-31T15:33:29.855Z,20.12
2022-08-31T15:36:13.068Z,19.75
2022-08-31T15:38:55.067Z,19.82
2022-08-31T15:42:06.652Z,20.01
2022-08-31T15:45:28.780Z,19.90
2022-08-31T15:48:45.926Z,19.54
2022-08-31T15:52:04.388Z,19.52
2022-08-31T15:54:43.246Z,19.67
2022-08-31T15:57:32.666Z,19.43
2022-08-31T16:00:48.491Z,19.89
2022-08-31T16:03:22.050Z,19.74
2022-08-31T16:06:28.419Z,19.68
2022-08-31T16:09:51.722Z,20.06
2022-08-31T16:13:11.261Z,19.16
2022-08-31T16:16:08.218Z,19.67
2022-08-31T16:19:34.028Z,19.51
2022-08-31T16:22:28.254Z,20.00
2022-08-31T16:25:48.942Z,19.24
2022-08-31T16:29:18.589Z,19.23
2022-08-31T16:31:59.357Z,18.59
